Date,TemperatureHighF,TemperatureAvgF,TemperatureLowF,DewpointHighF,DewpointAvgF,DewpointLowF,HumidityHigh,HumidityAvg,HumidityLow,PressureMaxIn,PressureMinIn,WindSpeedMaxMPH,WindSpeedAvgMPH,GustSpeedMaxMPH,PrecipitationSumIn
2013-1-1,34.7,32.7,32.0,26.6,25.2,22.3,76,74,67,29.92,29.88,2,2,8,0.00
2013-1-11,37.2,37.1,37.0,36.4,36.4,36.3,97,97,97,30.14,30.13,0,0,2,0.02
2013-1-12,49.8,40.0,34.7,48.7,39.5,34.2,99,98,87,30.20,30.11,2,0,5,0.02
2013-1-13,43.5,41.0,39.2,43.0,40.6,38.9,99,99,98,30.19,30.08,3,1,7,0.02
2013-1-14,53.6,45.0,33.3,51.3,40.3,26.9,99,85,57,30.32,29.94,3,1,8,0.07
2013-1-15,33.6,31.8,29.5,29.2,26.6,24.3,89,81,73,30.36,30.22,2,0,4,0.07
2013-1-16,29.8,28.5,27.5,28.6,26.0,24.4,95,91,85,30.22,29.95,0,0,0,0.00
2013-1-17,30.2,30.2,30.2,19.5,19.5,19.5,64,64,64,30.04,30.04,0,0,3,0.00
2013-1-18,36.3,26.5,20.5,19.9,7.8,-7.1,69,48,21,30.41,30.01,4,1,9,0.00
2013-1-21,23.7,21.1,19.0,13.0,10.0,0.2,72,62,43,29.88,29.82,2,1,4,0.04
2013-1-22,19.4,14.5,10.4,4.4,-6.8,-16.3,63,40,21,30.10,29.81,4,2,9,0.00
2013-1-23,7.2,5.1,3.9,-9.8,-14.4,-19.3,47,40,29,30.16,30.11,3,1,7,0.00
2013-1-26,15.1,9.7,7.9,3.2,-0.0,-1.5,71,64,54,30.11,29.99,2,1,4,0.00
2013-1-27,41.2,21.4,11.3,11.4,2.7,-1.2,61,46,22,30.47,30.32,4,1,8,0.01
2013-1-28,30.4,25.5,20.7,28.3,16.4,4.7,93,70,45,30.44,30.04,3,1,8,0.00
2013-1-29,59.9,41.0,32.4,44.6,37.3,30.6,99,87,51,30.15,30.00,4,1,7,0.22
2013-1-30,58.1,48.6,39.0,57.8,48.1,38.8,99,98,97,30.08,29.40,5,2,10,0.35
2013-1-31,58.1,39.3,23.2,57.8,25.5,0.7,99,61,27,29.78,29.13,11,4,24,1.19
2013-2-1,25.7,17.4,11.5,8.9,0.8,-4.6,63,48,27,29.96,29.75,4,2,8,0.00
2013-2-2,32.9,20.1,15.8,16.8,10.1,4.8,75,65,45,29.79,29.50,2,0,4,0.00
2013-2-3,32.7,20.5,15.1,14.9,4.4,-4.8,77,51,24,29.67,29.50,4,1,11,0.00
2013-2-4,27.3,22.8,20.1,17.1,11.2,-0.5,75,61,36,29.67,29.60,2,0,5,0.00
2013-2-5,26.2,14.9,3.9,21.5,0.9,-19.3,82,56,28,29.90,29.60,3,1,7,0.00
2013-2-6,28.0,12.7,5.7,7.4,-6.5,-16.9,53,42,23,30.05,29.77,3,0,6,1.83
2013-2-7,31.5,22.8,15.4,11.7,3.0,-1.4,58,42,31,30.17,30.02,3,1,6,0.02
2013-2-8,30.4,27.4,24.4,26.7,22.0,11.8,87,80,58,30.01,29.44,3,1,11,0.00
2013-2-9,35.8,23.0,12.9,21.8,10.0,-1.9,84,60,29,30.05,29.49,5,2,22,0.04
2013-2-10,50.7,24.2,10.8,16.7,4.0,-2.0,66,45,21,30.16,30.04,3,1,7,0.16
2013-2-11,41.0,34.7,26.1,39.8,30.3,9.2,97,85,47,30.02,29.42,4,2,8,0.04
2013-2-12,44.4,35.3,28.9,33.6,21.9,17.7,93,58,42,29.71,29.47,4,2,13,0.01
2013-2-13,50.9,32.7,23.7,27.2,19.2,14.3,84,59,29,29.68,29.43,2,0,4,0.00
2013-2-14,31.1,31.1,31.1,26.9,26.9,26.9,84,84,84,29.46,29.45,0,0,2,0.00
2013-2-15,55.4,39.9,31.1,28.4,23.7,19.1,81,54,27,29.74,29.67,4,2,10,0.00
2013-2-16,36.7,29.8,23.7,27.8,19.2,5.1,86,66,44,29.71,29.52,3,0,7,0.07
2013-2-17,36.1,21.2,11.5,4.6,-3.3,-11.0,48,34,21,29.67,29.41,4,2,14,0.02
2013-2-18,27.0,12.3,9.5,0.1,-7.1,-9.5,46,41,29,29.91,29.68,4,2,11,0.00
2013-2-19,37.8,31.5,24.6,35.9,19.7,-0.2,93,64,29,29.88,29.43,6,2,13,0.31
2013-2-20,31.5,24.6,18.3,18.5,6.6,0.0,63,46,30,29.68,29.45,0,0,0,0.01
2013-2-21,36.1,24.2,18.3,11.3,4.9,0.5,55,44,28,29.95,29.66,4,2,11,0.00
2013-2-22,34.0,25.4,15.8,24.7,13.9,4.1,81,62,48,30.08,29.96,3,1,6,0.00
2013-2-23,36.7,33.3,30.0,34.3,30.6,24.8,92,90,80,29.97,29.56,4,2,6,0.19
2013-2-24,42.4,33.5,27.5,39.6,27.0,14.3,95,78,56,29.70,29.50,3,1,5,0.01
2013-2-25,40.6,32.4,25.5,26.7,20.7,14.4,73,62,51,29.97,29.71,3,0,5,0.00
2013-2-26,39.4,33.4,29.3,28.2,23.7,19.7,87,68,56,30.00,29.63,5,2,12,0.01
2013-2-27,38.3,36.8,31.5,33.4,31.8,28.3,89,82,79,29.61,29.38,3,0,5,0.51
2013-2-28,46.4,37.4,30.7,33.0,27.5,19.9,84,68,47,29.39,29.31,2,0,4,0.00
2013-3-1,44.2,33.9,28.8,26.5,23.3,19.2,84,66,46,29.55,29.37,2,1,7,0.00
2013-3-3,27.9,27.0,25.9,13.8,10.7,0.4,59,51,30,30.06,29.84,4,2,9,0.00
2013-3-4,37.8,31.6,24.6,35.9,20.9,1.3,93,67,33,30.04,29.63,6,2,13,0.31
2013-3-5,33.6,26.0,19.0,19.2,8.0,0.0,63,47,30,29.93,29.66,1,0,2,0.78
2013-3-6,36.7,34.2,32.4,29.8,24.7,19.0,80,68,57,29.90,29.79,4,2,13,0.01
2013-3-7,38.8,32.4,28.4,27.6,22.8,18.0,86,68,50,30.02,29.88,4,2,9,0.01
2013-3-8,41.4,30.8,25.5,30.4,23.0,18.7,83,73,57,30.14,29.93,4,1,14,0.14
2013-3-9,65.5,41.1,26.1,22.2,17.1,14.0,63,41,16,30.25,30.11,3,1,6,0.00
2013-3-10,55.9,40.5,32.4,32.8,25.3,10.7,84,57,31,30.28,30.19,4,1,8,0.00
2013-3-11,51.8,40.4,32.4,45.2,36.5,28.4,97,87,53,30.24,30.03,5,2,10,0.01
2013-3-12,53.8,47.4,37.4,52.7,45.5,33.9,97,93,84,30.02,29.65,6,3,16,1.43
2013-3-13,37.6,36.4,35.6,33.8,31.4,30.4,86,82,80,29.82,29.81,2,0,5,0.00
2013-3-14,44.6,30.4,23.9,20.3,5.2,-4.2,62,36,20,29.88,29.78,4,2,11,0.00
2013-3-15,41.2,32.5,22.3,26.6,14.7,1.1,62,48,32,29.89,29.66,4,2,11,0.00
2013-3-16,35.2,30.0,27.3,24.2,19.3,13.8,81,64,47,29.84,29.69,2,0,6,0.00
2013-3-17,36.3,28.1,21.7,21.8,12.7,5.7,81,54,32,30.21,29.83,2,0,8,0.08
2013-3-18,31.3,24.6,19.6,19.8,8.5,-0.5,82,51,35,30.28,30.03,4,1,10,0.00
2013-3-19,49.3,34.3,28.0,38.7,28.5,17.3,90,80,53,29.89,29.64,5,1,8,0.40
2013-3-21,42.3,29.3,23.4,21.3,9.3,0.4,74,45,22,29.76,29.57,2,1,6,0.00
2013-3-22,38.3,29.2,21.9,17.4,11.4,4.0,60,48,33,29.81,29.63,4,1,7,0.00
2013-3-23,47.7,33.8,26.8,19.1,13.8,9.3,58,44,25,29.86,29.77,4,2,8,0.00
2013-3-24,48.9,35.4,25.3,19.4,14.8,9.9,55,44,27,29.87,29.63,2,1,8,0.00
2013-3-25,36.7,33.6,30.9,28.3,22.8,17.3,83,65,50,29.63,29.42,3,1,7,0.04
2013-3-26,54.5,38.8,31.1,29.1,23.6,16.7,77,57,24,29.81,29.54,3,1,7,0.02
2013-3-27,55.0,38.1,27.7,27.8,21.5,13.6,71,54,21,29.94,29.80,2,1,6,0.00
2013-3-28,50.5,38.5,30.0,28.4,24.8,22.8,76,59,36,30.06,29.90,3,1,9,0.00
2013-3-29,56.8,41.5,32.7,27.4,23.5,18.0,64,50,24,30.08,30.02,2,1,8,0.00
2013-3-30,63.0,44.7,32.0,27.3,19.5,11.3,67,41,16,30.11,30.01,3,1,8,0.00
2013-3-31,55.2,44.4,39.4,40.5,28.2,12.0,96,57,29,30.06,29.65,6,2,15,0.21
2013-4-1,60.8,45.6,40.5,43.2,37.9,16.6,96,77,31,29.69,29.62,4,1,12,0.01
2013-4-2,45.1,33.2,24.8,14.0,5.7,-0.6,50,32,20,29.99,29.85,4,1,8,0.00
2013-4-6,60.3,40.6,28.0,23.1,12.3,1.8,61,34,18,30.22,29.95,3,1,8,0.00
2013-4-7,61.9,46.3,32.5,41.3,30.6,21.1,77,57,26,30.21,29.93,7,3,13,0.00
2013-4-8,79.2,60.2,46.0,46.1,40.2,32.8,79,52,20,30.04,29.94,3,1,8,0.00
2013-4-9,87.4,69.5,57.2,50.6,41.6,28.8,72,42,14,29.98,29.90,4,1,10,0.00
2013-4-10,86.5,65.1,53.6,56.9,51.3,43.4,99,64,34,29.94,29.80,4,1,9,0.54
2013-4-11,59.5,52.6,42.3,56.9,49.4,40.5,99,90,61,29.99,29.78,2,1,8,0.01
2013-4-12,42.3,38.8,36.1,42.0,37.7,35.4,99,96,80,29.96,29.67,7,3,11,0.30
2013-4-13,60.1,45.8,36.1,42.6,35.7,31.1,99,73,36,29.88,29.72,3,1,11,0.02
2013-4-15,62.1,47.4,38.5,37.0,29.3,24.4,75,51,32,30.30,30.16,4,1,8,0.00
2013-4-16,68.0,55.3,42.8,54.3,47.2,36.8,94,75,55,30.30,30.09,5,2,11,0.00
2013-4-17,76.6,60.1,48.9,54.9,37.9,22.7,93,51,16,30.26,30.10,3,1,6,0.00
2013-4-18,55.2,50.3,45.7,51.2,42.3,35.7,99,76,49,30.28,30.06,4,1,15,0.00
2013-4-19,76.5,61.8,51.8,65.1,58.2,50.7,99,90,60,30.06,29.64,6,3,14,0.61
2013-4-20,59.9,48.1,38.7,51.4,31.8,19.3,99,58,25,30.26,29.69,4,2,13,0.11
2013-4-21,61.2,42.6,29.8,22.4,17.8,12.0,64,40,19,30.54,30.26,3,1,8,0.00
2013-4-22,54.9,43.7,33.8,34.1,27.4,20.0,75,53,39,30.58,30.44,3,1,8,0.00
2013-4-23,48.0,41.0,33.8,39.4,34.5,28.1,89,78,70,30.41,30.08,2,1,5,0.00
2013-4-24,72.1,54.7,37.8,52.6,44.6,35.4,94,72,43,30.08,29.79,6,2,12,0.00
2013-4-25,69.1,53.1,39.0,53.3,27.1,17.0,88,42,14,30.23,29.85,4,2,8,0.01
2013-4-26,70.2,53.7,42.6,35.2,25.8,17.5,64,38,15,30.37,30.22,2,1,5,0.00
2013-4-27,77.2,54.4,40.3,30.3,26.6,20.1,63,39,14,30.38,30.25,2,1,8,0.00
2013-4-28,71.4,57.7,45.1,40.0,34.1,26.0,63,42,26,30.26,30.15,6,2,9,0.00
2013-4-29,52.5,49.0,47.7,48.5,46.1,35.9,99,90,53,30.20,30.13,3,1,9,0.13
2013-4-30,70.2,54.0,46.6,51.4,37.2,18.9,99,62,20,30.30,30.16,3,0,7,0.02
2013-5-1,73.4,55.4,43.2,42.4,29.5,18.4,76,41,14,30.44,30.29,4,1,8,0.00
2013-5-2,80.1,59.9,43.7,41.7,38.8,31.9,88,51,21,30.43,30.31,3,1,5,0.00
2013-5-3,70.0,56.3,45.0,41.2,34.7,20.5,81,48,16,30.41,30.32,2,1,11,0.00
2013-5-5,71.1,51.0,38.3,41.4,38.1,29.5,99,68,23,30.25,30.17,3,0,5,0.00
2013-5-6,75.2,54.5,40.3,52.3,46.0,39.1,98,76,43,30.22,30.12,2,0,7,0.00
2013-5-7,74.8,60.4,47.8,57.1,51.0,43.2,99,74,45,30.15,30.08,2,0,7,0.00
2013-5-8,67.5,58.5,51.8,63.0,57.2,51.0,99,96,78,30.10,29.95,2,0,4,1.20
2013-5-9,70.7,56.9,51.1,58.1,53.1,50.8,99,88,56,29.99,29.90,2,0,5,0.07
2013-5-10,79.9,65.7,52.9,58.3,54.4,47.9,99,71,34,30.01,29.92,3,1,7,0.00
2013-5-11,70.7,62.4,58.8,65.0,60.3,58.3,99,93,73,29.93,29.74,4,1,9,0.58
2013-5-12,66.9,56.0,44.2,57.3,38.3,21.1,99,57,19,29.92,29.68,5,1,14,0.00
2013-5-13,53.8,44.5,37.0,31.5,27.4,20.1,78,53,28,30.08,29.91,4,1,9,0.00
2013-5-14,64.4,47.6,34.0,31.4,24.4,16.2,79,46,16,30.10,30.00,2,1,8,0.00
2013-5-15,71.1,57.0,46.2,56.3,42.8,25.0,88,60,40,30.04,29.69,4,1,11,0.00
2013-5-16,81.7,67.9,56.3,56.2,49.5,38.9,88,55,31,29.88,29.74,3,0,9,0.00
2013-5-17,76.3,61.0,51.8,42.5,39.7,33.9,66,47,25,30.20,29.88,1,0,9,0.00
2013-5-18,62.1,56.5,53.6,53.6,46.9,40.0,95,72,53,30.28,30.19,2,0,7,0.01
2013-5-19,56.3,54.1,52.3,56.0,53.5,51.6,99,98,93,30.28,30.16,3,1,7,0.25
2013-5-20,81.0,65.7,54.7,66.2,61.0,53.9,99,86,56,30.17,30.00,2,1,7,0.01
2013-5-21,87.3,73.2,63.5,69.9,66.2,62.7,99,81,53,30.00,29.88,2,1,6,0.00
2013-5-22,81.9,71.4,62.8,71.3,66.8,15.8,99,86,14,29.95,29.86,3,1,7,0.00
2013-5-23,76.3,67.8,60.3,70.6,66.0,60.0,99,94,73,29.93,29.78,3,1,8,0.00
2013-5-24,63.1,48.4,40.5,62.3,47.9,40.2,99,98,97,29.95,29.72,2,1,5,0.01
2013-5-25,52.0,44.9,39.2,43.9,39.6,35.1,99,83,57,29.99,29.89,3,1,8,0.00
2013-5-26,66.9,53.9,42.4,38.9,35.1,29.5,83,53,27,30.18,29.95,4,1,10,0.00
2013-5-27,74.1,54.3,45.7,41.5,34.9,30.9,63,50,24,30.23,30.13,3,0,5,0.01
2013-5-28,60.3,55.3,53.1,53.3,48.8,40.2,98,81,50,30.22,30.12,2,0,3,0.01
2013-5-29,81.1,68.5,54.1,67.9,61.7,53.3,99,81,59,30.12,30.04,3,1,8,0.00
2013-5-30,91.0,78.5,68.5,65.1,63.0,57.9,85,61,40,30.18,30.10,3,1,6,0.00
2013-5-31,89.8,79.0,69.8,70.5,63.5,55.8,83,61,40,30.17,30.03,4,1,5,0.00
2013-6-1,89.1,77.7,67.3,68.5,65.8,63.1,93,68,49,30.06,29.94,3,1,5,0.00
2013-6-2,86.5,75.2,68.4,69.2,66.8,65.1,98,76,53,29.96,29.83,3,1,30,0.01
2013-6-3,82.2,69.0,59.9,68.5,62.6,48.5,99,82,53,29.93,29.83,2,0,6,0.00
2013-6-4,74.8,61.3,51.1,47.9,44.3,40.5,81,55,32,30.14,29.93,2,0,7,0.00
2013-6-5,76.5,61.5,50.2,51.1,44.6,37.1,72,54,35,30.21,30.12,2,0,5,0.00
2013-6-6,65.1,58.3,53.2,58.2,53.4,46.7,99,85,59,30.14,30.00,2,0,7,0.01
2013-6-7,59.5,57.8,55.8,59.3,57.5,55.5,99,99,99,30.00,29.75,2,1,4,0.00
2013-6-8,70.7,63.0,54.0,66.4,59.5,53.1,99,89,74,30.09,29.65,2,0,5,0.02
2013-6-9,79.0,67.4,57.0,60.3,57.5,54.9,97,73,48,30.20,30.09,2,0,6,0.00
2013-6-10,68.0,64.9,63.0,60.6,57.9,56.7,89,78,68,30.19,30.15,0,0,2,0.00
2013-6-11,75.2,67.5,60.8,66.5,63.1,58.4,99,87,68,29.83,29.69,3,1,9,0.09
2013-6-12,79.9,66.7,59.2,60.1,54.8,51.3,87,67,44,29.89,29.75,2,0,8,0.00
2013-6-13,64.2,58.5,52.9,58.9,55.4,50.6,99,90,62,29.88,29.48,3,1,7,1.19
2013-6-14,72.0,57.3,49.6,58.7,53.7,49.4,99,89,53,29.94,29.57,2,0,8,0.34
2013-6-15,56.5,55.3,54.7,56.2,54.8,53.9,99,98,97,30.00,29.93,0,0,2,0.00